createdAt,value
2019-02-10T00:01:18.953Z,6.22
2019-02-10T00:03:47.595Z,6.18
2019-02-10T00:06:24.331Z,6.13
2019-02-10T00:08:46.635Z,6.07
2019-02-10T00:11:15.238Z,5.96
2019-02-10T00:13:43.859Z,5.82
2019-02-10T00:16:20.057Z,5.77
2019-02-10T00:18:48.648Z,5.67
2019-02-10T00:21:17.265Z,5.63
2019-02-10T00:23:45.915Z,5.59
2019-02-10T00:26:14.551Z,5.68
2019-02-10T00:28:43.195Z,5.50
2019-02-10T00:31:11.813Z,5.39
2019-02-10T00:33:40.470Z,5.41
2019-02-10T00:36:09.106Z,5.56
2019-02-10T00:38:37.700Z,5.62
2019-02-10T00:41:06.293Z,5.85
2019-02-10T00:43:34.893Z,5.88
2019-02-10T00:46:03.503Z,5.89
2019-02-10T00:48:32.123Z,6.15
2019-02-10T00:51:00.792Z,6.10
2019-02-10T00:53:29.351Z,6.12
2019-02-10T00:55:57.922Z,6.15
2019-02-10T00:58:26.539Z,6.26
2019-02-10T01:00:55.155Z,6.14
2019-02-10T01:03:24.094Z,6.28
2019-02-10T01:05:52.718Z,6.32
2019-02-10T01:08:21.403Z,6.27
2019-02-10T01:10:50.026Z,6.20
2019-02-10T01:13:18.604Z,6.27
2019-02-10T01:15:47.182Z,6.41
2019-02-10T01:18:15.818Z,6.22
2019-02-10T01:20:44.425Z,5.99
2019-02-10T01:23:12.992Z,5.85
2019-02-10T01:25:41.587Z,5.82
2019-02-10T01:28:10.180Z,5.87
2019-02-10T01:30:38.822Z,5.90
2019-02-10T01:33:07.390Z,5.85
2019-02-10T01:35:35.988Z,5.73
2019-02-10T01:38:04.857Z,5.71
2019-02-10T01:40:33.479Z,5.70
2019-02-10T01:43:02.110Z,5.73
2019-02-10T01:45:30.788Z,5.74
2019-02-10T01:47:59.387Z,5.84
2019-02-10T01:50:27.997Z,6.07
2019-02-10T01:52:56.598Z,6.12
2019-02-10T01:55:25.253Z,6.22
2019-02-10T01:57:53.944Z,6.10
2019-02-10T02:00:22.598Z,6.15
2019-02-10T02:02:51.171Z,6.20
2019-02-10T02:05:19.753Z,6.22
2019-02-10T02:07:48.383Z,6.22
2019-02-10T02:10:16.999Z,6.23
2019-02-10T02:12:45.673Z,6.11
2019-02-10T02:15:15.080Z,6.11
2019-02-10T02:17:43.749Z,6.12
2019-02-10T02:20:12.571Z,6.10
2019-02-10T02:22:41.204Z,6.00
2019-02-10T02:25:10.720Z,6.08
2019-02-10T02:27:39.297Z,6.06
2019-02-10T02:30:13.536Z,6.18
2019-02-10T02:32:42.067Z,6.17
2019-02-10T02:35:10.732Z,6.16
2019-02-10T02:37:39.325Z,6.14
2019-02-10T02:40:09.405Z,6.15
2019-02-10T02:42:38.046Z,6.20
2019-02-10T02:45:08.509Z,6.15
2019-02-10T02:47:37.103Z,6.20
2019-02-10T02:50:06.939Z,6.37
2019-02-10T02:52:35.569Z,6.36
2019-02-10T02:55:04.364Z,6.36
2019-02-10T02:57:33.064Z,6.35
2019-02-10T03:00:01.707Z,6.27
2019-02-10T03:02:30.321Z,6.25
2019-02-10T03:04:58.973Z,6.21
2019-02-10T03:07:27.607Z,6.23
2019-02-10T03:09:56.207Z,6.22
2019-02-10T03:12:24.764Z,6.29
2019-02-10T03:14:53.407Z,6.22
2019-02-10T03:17:22.058Z,6.11
2019-02-10T03:19:50.642Z,6.01
2019-02-10T03:22:19.205Z,5.94
2019-02-10T03:24:47.942Z,5.85
2019-02-10T03:27:16.530Z,5.89
2019-02-10T03:29:45.130Z,5.82
2019-02-10T03:32:13.871Z,5.88
2019-02-10T03:34:42.408Z,5.91
2019-02-10T03:37:10.978Z,5.88
2019-02-10T03:39:39.603Z,5.74
2019-02-10T03:42:08.260Z,5.70
2019-02-10T03:44:37.013Z,5.68
2019-02-10T03:47:05.611Z,5.67
2019-02-10T03:49:34.233Z,5.63
2019-02-10T03:52:02.837Z,5.65
2019-02-10T03:54:31.422Z,5.64
2019-02-10T03:57:00.026Z,5.64
2019-02-10T03:59:28.633Z,5.59
2019-02-10T04:01:57.317Z,5.55
2019-02-10T04:04:25.934Z,5.51
2019-02-10T04:06:54.548Z,5.54
2019-02-10T04:09:23.171Z,5.50
2019-02-10T04:11:51.791Z,5.41
2019-02-10T04:14:20.386Z,5.43
2019-02-10T04:16:48.985Z,5.45
2019-02-10T04:19:17.557Z,5.46
2019-02-10T04:21:46.216Z,5.42
2019-02-10T04:24:14.787Z,5.42
2019-02-10T04:26:43.419Z,5.45
2019-02-10T04:29:12.021Z,5.48
2019-02-10T04:31:40.622Z,5.41
2019-02-10T04:34:09.257Z,5.42
2019-02-10T04:36:37.851Z,5.61
2019-02-10T04:39:06.604Z,5.53
2019-02-10T04:41:35.259Z,5.55
2019-02-10T04:44:03.860Z,5.54
2019-02-10T04:46:32.480Z,5.65
2019-02-10T04:49:01.105Z,5.64
2019-02-10T04:51:29.805Z,5.59
2019-02-10T04:53:58.366Z,5.56
2019-02-10T04:56:26.998Z,5.55
2019-02-10T04:58:55.586Z,5.57
2019-02-10T05:01:24.168Z,5.58
2019-02-10T05:03:52.768Z,5.63
2019-02-10T05:06:21.378Z,5.67
2019-02-10T05:08:49.978Z,5.60
2019-02-10T05:11:18.558Z,5.59
2019-02-10T05:13:47.145Z,5.67
2019-02-10T05:16:15.789Z,5.57
2019-02-10T05:18:44.367Z,5.61
2019-02-10T05:21:13.027Z,5.64
2019-02-10T05:23:41.720Z,5.66
2019-02-10T05:26:10.455Z,5.71
2019-02-10T05:28:39.083Z,5.77
2019-02-10T05:31:07.644Z,5.82
2019-02-10T05:33:36.261Z,5.86
2019-02-10T05:36:05.219Z,5.89
2019-02-10T05:38:33.879Z,5.98
2019-02-10T05:41:02.470Z,5.97
2019-02-10T05:43:31.232Z,5.95
2019-02-10T05:45:59.889Z,5.96
2019-02-10T05:48:28.508Z,6.06
2019-02-10T05:50:57.104Z,6.14
2019-02-10T05:53:25.740Z,6.09
2019-02-10T05:55:54.327Z,6.17
2019-02-10T05:58:22.887Z,6.26
2019-02-10T06:00:51.489Z,6.25
2019-02-10T06:03:20.130Z,6.33
2019-02-10T06:05:48.692Z,6.34
2019-02-10T06:08:17.372Z,6.30
2019-02-10T06:10:45.951Z,6.36
2019-02-10T06:13:14.613Z,6.35
2019-02-10T06:15:43.192Z,6.31
2019-02-10T06:18:11.828Z,6.34
2019-02-10T06:20:40.480Z,6.38
2019-02-10T06:23:09.076Z,6.38
2019-02-10T06:25:37.654Z,6.38
2019-02-10T06:28:06.296Z,6.40
2019-02-10T06:30:34.887Z,6.41
2019-02-10T06:33:03.488Z,6.43
2019-02-10T06:35:32.101Z,6.49
2019-02-10T06:38:00.789Z,6.39
2019-02-10T06:40:29.430Z,6.47
2019-02-10T06:42:58.054Z,6.44
2019-02-10T06:45:26.665Z,6.52
2019-02-10T06:47:55.302Z,6.46
2019-02-10T06:50:23.951Z,6.54
2019-02-10T06:52:52.573Z,6.58
2019-02-10T06:55:21.211Z,6.62
2019-02-10T06:57:49.845Z,6.56
2019-02-10T07:00:36.610Z,6.56
2019-02-10T07:03:49.048Z,6.54
2019-02-10T07:06:17.685Z,6.62
2019-02-10T07:08:46.312Z,6.59
2019-02-10T07:11:15.016Z,6.67
2019-02-10T07:13:46.042Z,6.67
2019-02-10T07:16:37.680Z,6.64
2019-02-10T07:19:42.470Z,6.63
2019-02-10T07:23:00.680Z,6.68
2019-02-10T07:25:49.628Z,6.68
2019-02-10T07:28:46.819Z,6.64
2019-02-10T07:31:19.673Z,6.61
2019-02-10T07:34:11.005Z,6.63
2019-02-10T07:37:03.114Z,6.70
2019-02-10T07:39:54.553Z,6.67
2019-02-10T07:42:51.540Z,6.75
2019-02-10T07:45:38.299Z,6.86
2019-02-10T07:48:21.679Z,6.81
2019-02-10T07:51:12.622Z,6.83
2019-02-10T07:53:53.409Z,6.91
2019-02-10T07:57:18.805Z,6.83
2019-02-10T08:00:05.292Z,6.85
2019-02-10T08:03:21.637Z,6.85
2019-02-10T08:06:37.930Z,6.85
2019-02-10T08:09:53.744Z,6.89
2019-02-10T08:12:48.290Z,6.84
2019-02-10T08:16:01.255Z,6.90
2019-02-10T08:18:41.246Z,6.91
2019-02-10T08:21:32.260Z,7.10
2019-02-10T08:24:45.654Z,7.10
2019-02-10T08:28:07.809Z,7.22
2019-02-10T08:31:05.779Z,7.23
2019-02-10T08:33:41.948Z,7.34
2019-02-10T08:36:41.919Z,7.48
2019-02-10T08:39:50.930Z,7.46
2019-02-10T08:42:55.907Z,7.54
2019-02-10T08:45:43.902Z,7.56
2019-02-10T08:48:59.554Z,7.55
2019-02-10T08:52:06.802Z,7.71
2019-02-10T08:54:35.402Z,7.71
2019-02-10T08:57:04.049Z,7.87
2019-02-10T08:59:32.733Z,7.82
2019-02-10T09:02:01.356Z,7.88
2019-02-10T09:04:29.966Z,7.86
2019-02-10T09:06:59.413Z,7.93
2019-02-10T09:09:28.090Z,8.02
2019-02-10T09:11:56.746Z,8.03
2019-02-10T09:14:25.388Z,8.10
2019-02-10T09:16:53.995Z,8.19
2019-02-10T09:19:22.604Z,8.20
2019-02-10T09:21:51.221Z,8.18
2019-02-10T09:24:19.824Z,8.30
2019-02-10T09:26:48.464Z,8.35
2019-02-10T09:29:17.048Z,8.42
2019-02-10T09:31:45.666Z,8.42
2019-02-10T09:34:14.227Z,8.57
2019-02-10T09:36:42.859Z,8.57
2019-02-10T09:39:11.450Z,8.64
2019-02-10T09:41:40.046Z,8.70
2019-02-10T09:44:08.640Z,8.83
2019-02-10T09:46:37.256Z,8.88
2019-02-10T09:49:05.859Z,8.80
2019-02-10T09:51:34.457Z,8.75
2019-02-10T09:54:03.047Z,8.79
2019-02-10T09:56:31.632Z,8.93
2019-02-10T09:59:00.228Z,8.97
2019-02-10T10:01:28.869Z,9.04
2019-02-10T10:03:57.473Z,9.06
2019-02-10T10:06:26.056Z,9.02
2019-02-10T10:08:54.750Z,8.97
2019-02-10T10:11:23.333Z,9.08
2019-02-10T10:13:53.246Z,9.16
2019-02-10T10:16:21.750Z,9.11
2019-02-10T10:18:56.505Z,9.12
2019-02-10T10:21:25.097Z,9.18
2019-02-10T10:23:53.683Z,9.30
2019-02-10T10:26:22.283Z,9.44
2019-02-10T10:28:50.997Z,9.54
2019-02-10T10:31:19.636Z,9.56
2019-02-10T10:33:48.267Z,9.62
2019-02-10T10:36:16.898Z,9.62
2019-02-10T10:38:45.599Z,9.72
2019-02-10T10:41:14.191Z,9.84
2019-02-10T10:43:42.812Z,9.83
2019-02-10T10:46:11.539Z,9.98
2019-02-10T10:48:40.209Z,9.99
2019-02-10T10:51:08.809Z,9.98
2019-02-10T10:53:37.429Z,10.03
2019-02-10T10:56:06.028Z,10.03
2019-02-10T10:58:34.619Z,10.07
2019-02-10T11:01:03.222Z,10.04
2019-02-10T11:03:31.951Z,10.09
2019-02-10T11:06:00.556Z,10.03
2019-02-10T11:08:29.192Z,9.97
2019-02-10T11:10:57.879Z,9.92
2019-02-10T11:13:26.681Z,9.91
2019-02-10T11:15:57.176Z,9.97
2019-02-10T11:18:25.721Z,9.99
2019-02-10T11:20:54.321Z,9.94
2019-02-10T11:23:22.930Z,9.95
2019-02-10T11:25:51.527Z,9.99
2019-02-10T11:28:20.168Z,10.06
2019-02-10T11:30:48.799Z,10.08
2019-02-10T11:33:17.409Z,10.10
2019-02-10T11:35:45.999Z,10.09
2019-02-10T11:38:14.583Z,10.00
2019-02-10T11:40:43.205Z,10.00
2019-02-10T11:43:11.797Z,9.96
2019-02-10T11:45:40.374Z,9.90
2019-02-10T11:48:08.992Z,9.87
2019-02-10T11:50:37.566Z,9.87
2019-02-10T11:53:06.272Z,9.84
2019-02-10T11:55:34.933Z,9.85
2019-02-10T11:58:03.671Z,9.89
2019-02-10T12:00:32.268Z,9.84
2019-02-10T12:03:00.910Z,9.85
2019-02-10T12:05:29.988Z,9.92
2019-02-10T12:07:58.683Z,9.89
2019-02-10T12:10:27.294Z,9.87
2019-02-10T12:12:55.877Z,9.88
2019-02-10T12:15:25.198Z,9.81
2019-02-10T12:17:53.869Z,9.73
2019-02-10T12:20:22.550Z,9.75
2019-02-10T12:22:51.186Z,9.75
2019-02-10T12:25:19.824Z,9.77
2019-02-10T12:27:48.437Z,9.75
2019-02-10T12:30:17.237Z,9.75
2019-02-10T12:32:46.071Z,9.78
2019-02-10T12:35:14.682Z,9.76
2019-02-10T12:37:45.029Z,9.79
2019-02-10T12:40:13.832Z,9.78
2019-02-10T12:42:42.557Z,9.69
2019-02-10T12:45:11.267Z,9.64
2019-02-10T12:47:39.938Z,9.68
2019-02-10T12:50:09.697Z,9.65
2019-02-10T12:52:38.312Z,9.66
2019-02-10T12:55:06.952Z,9.58
2019-02-10T12:57:35.569Z,9.54
2019-02-10T13:00:04.889Z,9.54
2019-02-10T13:02:33.545Z,9.54
2019-02-10T13:05:02.164Z,9.45
2019-02-10T13:07:30.781Z,9.39
2019-02-10T13:09:59.418Z,9.15
2019-02-10T13:12:27.978Z,9.07
2019-02-10T13:14:56.612Z,8.93
2019-02-10T13:17:25.207Z,8.83
2019-02-10T13:19:53.859Z,8.76
2019-02-10T13:22:22.489Z,8.70
2019-02-10T13:24:51.180Z,8.66
2019-02-10T13:27:19.814Z,8.62
2019-02-10T13:29:48.401Z,8.59
2019-02-10T13:32:17.042Z,8.53
2019-02-10T13:34:45.682Z,8.47
2019-02-10T13:37:14.311Z,8.46
2019-02-10T13:39:42.940Z,8.44
2019-02-10T13:42:12.022Z,8.37
2019-02-10T13:44:40.605Z,8.32
2019-02-10T13:47:09.202Z,8.30
2019-02-10T13:49:37.848Z,8.30
2019-02-10T13:52:06.456Z,8.38
2019-02-10T13:54:35.119Z,8.36
2019-02-10T13:57:03.728Z,8.30
2019-02-10T13:59:32.367Z,8.27
2019-02-10T14:02:01.009Z,8.24
2019-02-10T14:04:29.595Z,8.22
2019-02-10T14:06:58.264Z,8.14
2019-02-10T14:09:26.881Z,7.81
2019-02-10T14:11:55.464Z,7.81
2019-02-10T14:14:24.034Z,7.69
2019-02-10T14:16:52.617Z,7.63
2019-02-10T14:19:21.215Z,7.62
2019-02-10T14:21:49.831Z,7.61
2019-02-10T14:24:18.456Z,7.57
2019-02-10T14:26:47.051Z,7.56
2019-02-10T14:29:15.674Z,7.54
2019-02-10T14:31:44.748Z,7.49
2019-02-10T14:34:13.392Z,7.47
2019-02-10T14:36:42.031Z,7.44
2019-02-10T14:39:10.660Z,7.41
2019-02-10T14:41:39.499Z,7.40
2019-02-10T14:44:08.111Z,7.37
2019-02-10T14:46:36.746Z,7.36
2019-02-10T14:49:05.932Z,7.42
2019-02-10T14:51:34.538Z,7.41
2019-02-10T14:54:03.141Z,7.41
2019-02-10T14:56:31.916Z,7.43
2019-02-10T14:59:00.541Z,7.40
2019-02-10T15:01:30.352Z,7.43
2019-02-10T15:03:59.021Z,7.47
2019-02-10T15:06:27.607Z,7.47
2019-02-10T15:08:56.229Z,7.52
2019-02-10T15:11:24.878Z,7.58
2019-02-10T15:13:53.600Z,7.76
2019-02-10T15:16:22.218Z,7.79
2019-02-10T15:18:50.850Z,7.78
2019-02-10T15:21:19.747Z,7.70
2019-02-10T15:23:48.644Z,7.65
2019-02-10T15:26:17.293Z,7.68
2019-02-10T15:28:45.897Z,7.67
2019-02-10T15:31:14.577Z,7.73
2019-02-10T15:33:43.316Z,7.89
2019-02-10T15:36:11.960Z,8.47
2019-02-10T15:38:40.540Z,8.85
2019-02-10T15:41:09.347Z,8.77
2019-02-10T15:43:37.940Z,8.24
2019-02-10T15:46:06.542Z,8.03
2019-02-10T15:48:35.172Z,7.82
2019-02-10T15:51:03.856Z,7.66
2019-02-10T15:53:32.549Z,7.56
2019-02-10T15:56:01.592Z,7.47
2019-02-10T15:58:30.276Z,7.38
2019-02-10T16:00:59.400Z,7.30
2019-02-10T16:03:28.211Z,7.33
2019-02-10T16:05:56.943Z,7.29
2019-02-10T16:08:25.904Z,7.25
2019-02-10T16:10:58.250Z,7.20
2019-02-10T16:13:27.912Z,7.19
2019-02-10T16:15:56.526Z,7.18
2019-02-10T16:18:25.384Z,7.16
2019-02-10T16:20:53.920Z,7.16
2019-02-10T16:23:22.488Z,6.94
2019-02-10T16:25:51.287Z,7.08
2019-02-10T16:28:19.866Z,7.05
2019-02-10T16:30:48.563Z,6.97
2019-02-10T16:33:17.168Z,6.97
2019-02-10T16:35:45.944Z,6.96
2019-02-10T16:38:14.567Z,6.92
2019-02-10T16:40:45.494Z,6.88
2019-02-10T16:43:14.125Z,6.85
2019-02-10T16:45:42.800Z,6.83
2019-02-10T16:48:11.553Z,6.83
2019-02-10T16:50:40.467Z,6.79
2019-02-10T16:53:09.100Z,6.54
2019-02-10T16:55:37.737Z,6.70
2019-02-10T16:58:06.677Z,6.67
2019-02-10T17:00:35.324Z,6.59
2019-02-10T17:03:04.031Z,6.55
2019-02-10T17:05:33.068Z,6.54
2019-02-10T17:08:01.779Z,6.56
2019-02-10T17:10:30.527Z,6.54
2019-02-10T17:12:59.215Z,6.50
2019-02-10T17:15:27.991Z,6.53
2019-02-10T17:17:56.881Z,6.56
2019-02-10T17:20:25.538Z,6.50
2019-02-10T17:22:57.610Z,6.50
2019-02-10T17:25:26.597Z,6.45
2019-02-10T17:27:55.188Z,6.42
2019-02-10T17:30:23.933Z,6.36
2019-02-10T17:32:52.555Z,6.25
2019-02-10T17:35:21.633Z,6.05
2019-02-10T17:37:50.553Z,6.00
2019-02-10T17:40:26.348Z,5.97
2019-02-10T17:42:54.965Z,5.87
2019-02-10T17:45:23.649Z,5.99
2019-02-10T17:47:52.510Z,5.91
2019-02-10T17:50:21.244Z,5.89
2019-02-10T17:52:49.881Z,5.86
2019-02-10T17:55:18.467Z,5.94
2019-02-10T17:57:47.963Z,5.88
2019-02-10T18:00:17.212Z,5.87
2019-02-10T18:02:45.829Z,5.77
2019-02-10T18:05:14.430Z,5.84
2019-02-10T18:07:43.090Z,5.79
2019-02-10T18:10:12.135Z,5.81
2019-02-10T18:12:40.858Z,5.85
2019-02-10T18:15:26.164Z,5.82
2019-02-10T18:18:16.781Z,5.97
2019-02-10T18:20:58.816Z,5.83
2019-02-10T18:23:43.124Z,5.81
2019-02-10T18:26:43.273Z,5.79
2019-02-10T18:29:22.712Z,5.89
2019-02-10T18:32:08.623Z,5.92
2019-02-10T18:34:48.971Z,5.86
2019-02-10T18:37:25.973Z,5.95
2019-02-10T18:40:09.079Z,5.97
2019-02-10T18:43:00.092Z,6.02
2019-02-10T18:45:46.680Z,6.14
2019-02-10T18:48:31.711Z,6.07
2019-02-10T18:51:06.477Z,5.99
2019-02-10T18:53:58.531Z,5.97
2019-02-10T18:56:46.154Z,5.97
2019-02-10T18:59:40.230Z,5.94
2019-02-10T19:02:35.779Z,5.58
2019-02-10T19:05:15.157Z,5.90
2019-02-10T19:08:11.957Z,5.92
2019-02-10T19:11:17.689Z,6.02
2019-02-10T19:14:05.288Z,5.96
2019-02-10T19:17:05.028Z,5.96
2019-02-10T19:19:43.877Z,5.98
2019-02-10T19:22:30.391Z,5.98
2019-02-10T19:25:20.521Z,5.98
2019-02-10T19:28:26.214Z,5.89
2019-02-10T19:31:16.646Z,5.86
2019-02-10T19:34:00.335Z,5.81
2019-02-10T19:36:46.897Z,5.86
2019-02-10T19:39:52.706Z,5.88
2019-02-10T19:42:31.616Z,5.96
2019-02-10T19:45:25.295Z,6.07
2019-02-10T19:48:10.156Z,6.01
2019-02-10T19:51:03.785Z,6.00
2019-02-10T19:53:52.318Z,5.98
2019-02-10T19:56:55.361Z,5.95
2019-02-10T19:59:51.827Z,5.94
2019-02-10T20:02:42.755Z,5.92
2019-02-10T20:05:23.978Z,5.87
2019-02-10T20:08:14.705Z,5.81
2019-02-10T20:11:05.678Z,5.75
2019-02-10T20:13:43.933Z,5.74
2019-02-10T20:16:23.045Z,5.64
2019-02-10T20:19:10.741Z,5.58
2019-02-10T20:21:58.374Z,5.55
2019-02-10T20:24:53.645Z,5.46
2019-02-10T20:27:43.842Z,5.46
2019-02-10T20:30:33.273Z,5.45
2019-02-10T20:33:27.283Z,5.45
2019-02-10T20:36:24.239Z,5.46
2019-02-10T20:39:14.775Z,5.44
2019-02-10T20:41:47.981Z,5.42
2019-02-10T20:44:41.372Z,5.38
2019-02-10T20:47:21.582Z,5.46
2019-02-10T20:50:12.102Z,5.46
2019-02-10T20:52:59.351Z,5.50
2019-02-10T20:55:56.014Z,5.58
2019-02-10T20:58:44.763Z,5.68
2019-02-10T21:01:22.451Z,5.73
2019-02-10T21:04:07.633Z,5.78
2019-02-10T21:06:54.400Z,5.78
2019-02-10T21:09:42.053Z,5.84
2019-02-10T21:12:25.269Z,5.90
2019-02-10T21:15:12.934Z,5.88
2019-02-10T21:17:54.886Z,5.81
2019-02-10T21:20:42.623Z,5.89
2019-02-10T21:23:24.221Z,5.90
2019-02-10T21:26:06.767Z,5.90
2019-02-10T21:28:57.158Z,5.90
2019-02-10T21:31:56.760Z,5.88
2019-02-10T21:34:37.914Z,5.89
2019-02-10T21:37:23.632Z,5.87
2019-02-10T21:40:11.203Z,5.88
2019-02-10T21:42:58.848Z,5.87
2019-02-10T21:45:46.470Z,5.83
2019-02-10T21:48:37.123Z,5.90
2019-02-10T21:51:05.753Z,5.89
2019-02-10T21:53:34.387Z,5.88
2019-02-10T21:56:02.943Z,5.91
2019-02-10T21:58:31.535Z,5.87
2019-02-10T22:01:00.281Z,5.92
2019-02-10T22:03:28.889Z,5.91
2019-02-10T22:05:57.612Z,5.89
2019-02-10T22:08:26.222Z,5.84
2019-02-10T22:10:54.797Z,5.82
2019-02-10T22:13:23.400Z,5.74
2019-02-10T22:15:52.026Z,5.75
2019-02-10T22:18:20.648Z,5.73
2019-02-10T22:20:49.261Z,5.73
2019-02-10T22:23:17.947Z,5.77
2019-02-10T22:25:46.604Z,5.66
2019-02-10T22:28:15.214Z,5.66
2019-02-10T22:30:43.863Z,5.63
2019-02-10T22:33:12.512Z,5.62
2019-02-10T22:35:41.106Z,5.61
2019-02-10T22:38:09.722Z,5.60
2019-02-10T22:40:38.307Z,5.60
2019-02-10T22:43:06.961Z,5.54
2019-02-10T22:45:35.583Z,5.50
2019-02-10T22:48:04.266Z,5.51
2019-02-10T22:50:32.893Z,5.44
2019-02-10T22:53:01.739Z,5.47
2019-02-10T22:55:30.345Z,5.52
2019-02-10T22:57:58.989Z,5.47
2019-02-10T23:00:50.479Z,5.48
2019-02-10T23:03:19.105Z,5.47
2019-02-10T23:05:47.818Z,5.52
2019-02-10T23:08:16.535Z,5.50
2019-02-10T23:10:45.105Z,5.46
2019-02-10T23:13:13.763Z,5.47
2019-02-10T23:15:42.338Z,5.48
2019-02-10T23:18:10.898Z,5.42
2019-02-10T23:20:39.526Z,5.42
2019-02-10T23:23:08.206Z,5.45
2019-02-10T23:25:36.850Z,5.46
2019-02-10T23:28:05.439Z,5.40
2019-02-10T23:30:34.053Z,5.40
2019-02-10T23:33:02.726Z,5.45
2019-02-10T23:35:31.321Z,5.38
2019-02-10T23:37:59.903Z,5.39
2019-02-10T23:40:28.533Z,5.38
2019-02-10T23:43:02.223Z,5.30
2019-02-10T23:45:27.500Z,5.37
2019-02-10T23:47:56.192Z,5.35
2019-02-10T23:50:24.806Z,5.30
2019-02-10T23:52:53.428Z,5.27
2019-02-10T23:55:22.015Z,5.35
2019-02-10T23:57:50.598Z,5.34
